Time;durP1;ratioP1;P1;durP2;ratioP2;P2;SDS_P1;SDS_P2;PMS_P1;PMS_P2;Temp;Humidity;BMP_temperature;BMP_pressure;BME280_temperature;BME280_humidity;BME280_pressure;Samples;Min_cycle;Max_cycle;Signal;HPM_P1;HPM_P2
2021/04/05 00:01:51;;;;;;;37.38;20.05;;;5.30;99.90;;;;;;5013229;28;20041;-54
2021/04/05 00:04:26;;;;;;;39.60;21.00;;;5.30;99.90;;;;;;5014268;28;20026;-56
2021/04/05 00:06:55;;;;;;;40.83;23.35;;;5.40;99.90;;;;;;5013378;28;20120;-55
2021/04/05 00:09:41;;;;;;;39.75;23.55;;;5.30;99.90;;;;;;5013138;28;20053;-53
2021/04/05 00:12:15;;;;;;;37.13;20.92;;;5.30;99.90;;;;;;5014482;28;20026;-59
2021/04/05 00:14:46;;;;;;;36.15;19.55;;;5.30;99.90;;;;;;5014276;28;20022;-57
2021/04/05 00:17:14;;;;;;;34.38;20.60;;;5.40;99.90;;;;;;5014576;28;20432;-58
2021/04/05 00:19:54;;;;;;;34.35;18.63;;;5.40;99.90;;;;;;5014541;28;20391;-57
2021/04/05 00:22:29;;;;;;;33.20;17.88;;;5.40;99.90;;;;;;5013788;28;20030;-57
2021/04/05 00:25:15;;;;;;;30.50;15.85;;;5.40;99.90;;;;;;5015993;28;20395;-59
2021/04/05 00:27:52;;;;;;;;;;;;;;;;;;;;;
2021/04/05 00:30:31;;;;;;;35.85;19.33;;;5.40;99.90;;;;;;5016696;28;20641;-57
2021/04/05 00:32:59;;;;;;;35.17;18.90;;;5.40;99.90;;;;;;5015037;28;20084;-58
2021/04/05 00:35:46;;;;;;;36.25;20.52;;;5.40;99.90;;;;;;5013915;28;20026;-57
2021/04/05 00:38:24;;;;;;;37.22;20.05;;;5.30;99.90;;;;;;5014365;28;20424;-58
2021/04/05 00:40:58;;;;;;;36.92;19.20;;;5.30;99.90;;;;;;5012869;28;20460;-55
2021/04/05 00:43:36;;;;;;;32.55;17.63;;;5.30;99.90;;;;;;5014030;28;20030;-57
2021/04/05 00:46:14;;;;;;;29.45;15.40;;;5.30;99.90;;;;;;4996499;28;20037;-55
2021/04/05 00:48:45;;;;;;;34.08;17.73;;;5.40;99.90;;;;;;5013388;28;20030;-58
2021/04/05 00:51:21;;;;;;;33.63;17.42;;;5.30;99.90;;;;;;5014560;28;20029;-56
2021/04/05 00:53:54;;;;;;;36.13;18.25;;;5.30;99.90;;;;;;5012282;28;20038;-57
2021/04/05 00:56:38;;;;;;;29.58;15.82;;;5.30;99.90;;;;;;5012504;28;20035;-55
2021/04/05 00:59:24;;;;;;;36.35;17.55;;;5.30;99.90;;;;;;5013919;28;20078;-56
2021/04/05 01:02:08;;;;;;;39.40;19.20;;;5.20;99.90;;;;;;5013566;28;20448;-54
2021/04/05 01:07:53;;;;;;;30.23;14.52;;;5.20;99.90;;;;;;5013368;28;20095;-56
2021/04/05 01:10:25;;;;;;;35.97;18.23;;;5.30;99.90;;;;;;5012229;28;20429;-57
2021/04/05 01:12:57;;;;;;;38.10;17.95;;;5.30;99.90;;;;;;5011937;28;20124;-57
2021/04/05 01:15:46;;;;;;;36.80;17.92;;;5.30;99.90;;;;;;5012903;28;20403;-56
2021/04/05 01:18:31;;;;;;;35.10;18.80;;;5.30;99.90;;;;;;5012167;28;20042;-57
2021/04/05 01:21:01;;;;;;;33.00;18.05;;;5.30;99.90;;;;;;5013026;28;20028;-57
2021/04/05 01:23:41;;;;;;;40.78;18.10;;;5.30;99.90;;;;;;5011517;28;20047;-57
2021/04/05 01:26:09;;;;;;;33.85;17.55;;;5.30;99.90;;;;;;5013141;28;20022;-57
2021/04/05 01:28:44;;;;;;;;;;;5.30;99.90;;;;;;5012204;28;20029;-57
2021/04/05 01:31:27;;;;;;;29.90;15.88;;;5.30;99.90;;;;;;5011542;28;20252;-58
2021/04/05 01:34:21;;;;;;;37.45;19.30;;;5.30;99.90;;;;;;5012603;28;20113;-55
2021/04/05 01:36:49;;;;;;;32.33;15.98;;;5.30;99.90;;;;;;5013572;28;20038;-56
2021/04/05 01:39:21;;;;;;;35.60;16.60;;;5.30;99.90;;;;;;5011540;28;20080;-57
2021/04/05 01:41:49;;;;;;;34.25;17.95;;;5.30;99.90;;;;;;5012738;28;20435;-60
2021/04/05 01:44:29;;;;;;;;;;;5.30;99.90;;;;;;5012962;28;20442;-58
2021/04/05 01:47:00;;;;;;;33.28;16.88;;;5.30;99.90;;;;;;5012109;28;19963;-58
2021/04/05 01:49:34;;;;;;;34.60;14.32;;;5.30;99.90;;;;;;5013357;28;20030;-56
2021/04/05 01:52:23;;;;;;;39.13;17.00;;;5.30;99.90;;;;;;5012504;28;20037;-56
2021/04/05 01:54:51;;;;;;;33.60;17.13;;;5.40;99.90;;;;;;5013544;28;20049;-57
2021/04/05 01:57:31;;;;;;;35.13;17.17;;;5.30;99.90;;;;;;5012106;28;20026;-55
2021/04/05 02:00:26;;;;;;;34.58;16.20;;;5.30;99.90;;;;;;5013349;28;20026;-57
2021/04/05 02:03:11;;;;;;;41.17;19.00;;;5.40;99.90;;;;;;5008139;28;20044;-58
2021/04/05 02:05:50;;;;;;;29.38;15.10;;;5.40;99.90;;;;;;5013264;28;20084;-53
2021/04/05 02:08:40;;;;;;;32.75;16.40;;;5.40;99.90;;;;;;5013301;28;20026;-58
2021/04/05 02:11:28;;;;;;;33.05;17.02;;;5.50;99.90;;;;;;5013435;28;20030;-54
2021/04/05 02:14:06;;;;;;;34.85;17.13;;;5.50;99.90;;;;;;5012947;28;20033;-57
2021/04/05 02:16:40;;;;;;;35.78;16.77;;;5.50;99.90;;;;;;5012324;28;20026;-56
2021/04/05 02:19:13;;;;;;;32.17;16.55;;;5.50;99.90;;;;;;5011465;28;20156;-57
2021/04/05 02:21:57;;;;;;;36.20;17.55;;;5.50;99.90;;;;;;5012556;28;20084;-56
2021/04/05 02:24:26;;;;;;;35.13;17.70;;;5.50;99.90;;;;;;5010747;28;20033;-54
2021/04/05 02:27:05;;;;;;;33.90;17.45;;;5.50;99.90;;;;;;5012177;28;20030;-53
2021/04/05 02:29:35;;;;;;;40.58;17.73;;;5.50;99.90;;;;;;5012134;28;20125;-55
2021/04/05 02:32:22;;;;;;;34.90;17.15;;;5.60;99.90;;;;;;5012383;28;20081;-57
2021/04/05 02:34:57;;;;;;;36.47;16.50;;;5.70;99.90;;;;;;5011380;28;20057;-56
2021/04/05 02:37:28;;;;;;;33.83;17.77;;;5.70;99.90;;;;;;5012140;28;20029;-57
2021/04/05 02:40:08;;;;;;;30.17;16.17;;;5.70;99.90;;;;;;5011488;28;20383;-57
2021/04/05 02:42:37;;;;;;;34.85;18.00;;;5.70;99.90;;;;;;5011815;28;20026;-54
2021/04/05 02:45:10;;;;;;;29.00;15.55;;;5.80;99.90;;;;;;5012762;28;20068;-55
2021/04/05 02:47:46;;;;;;;36.85;15.88;;;5.80;99.90;;;;;;5011729;28;20038;-57
2021/04/05 02:50:21;;;;;;;37.60;18.20;;;5.80;99.90;;;;;;5011746;28;20022;-57
2021/04/05 02:53:02;;;;;;;31.75;16.45;;;5.80;99.90;;;;;;5012991;28;20052;-53
2021/04/05 02:55:34;;;;;;;27.85;13.55;;;5.80;99.90;;;;;;5012482;28;20026;-58
2021/04/05 02:58:15;;;;;;;33.92;16.52;;;5.90;99.90;;;;;;5013410;28;20025;-54
2021/04/05 03:00:52;;;;;;;30.30;15.90;;;5.80;99.90;;;;;;5015085;28;20064;-57
2021/04/05 03:03:23;;;;;;;27.58;16.10;;;5.90;99.90;;;;;;5015524;28;20037;-59
2021/04/05 03:05:57;;;;;;;33.42;17.83;;;5.90;99.90;;;;;;5016693;28;20022;-58
2021/04/05 03:08:33;;;;;;;30.85;16.00;;;5.90;99.90;;;;;;5016892;28;20057;-58
2021/04/05 03:11:16;;;;;;;32.28;14.85;;;6.00;99.90;;;;;;5016543;28;20108;-56
2021/04/05 03:13:54;;;;;;;38.17;16.45;;;6.00;99.90;;;;;;5015430;28;20030;-56
2021/04/05 03:16:25;;;;;;;35.75;16.23;;;6.10;99.90;;;;;;5015102;28;20022;-54
2021/04/05 03:18:57;;;;;;;34.75;15.73;;;6.10;99.90;;;;;;5016659;28;20030;-58
2021/04/05 03:21:26;;;;;;;33.60;16.33;;;6.10;99.90;;;;;;5014274;28;20682;-57
2021/04/05 03:24:22;;;;;;;34.15;15.82;;;6.20;99.90;;;;;;5015367;28;20025;-58
2021/04/05 03:26:55;;;;;;;34.75;15.60;;;6.20;99.90;;;;;;5015442;28;20428;-56
2021/04/05 03:29:25;;;;;;;31.33;14.45;;;6.30;99.90;;;;;;5014144;28;20026;-56
2021/04/05 03:32:04;;;;;;;35.53;16.73;;;6.30;99.90;;;;;;5014115;28;20034;-55
2021/04/05 03:34:49;;;;;;;36.53;17.73;;;6.30;99.90;;;;;;5014735;28;20029;-57
2021/04/05 03:37:21;;;;;;;34.85;16.85;;;6.30;99.90;;;;;;5015192;28;20050;-59
2021/04/05 03:40:04;;;;;;;34.90;18.65;;;6.30;99.90;;;;;;5013520;28;20041;-56
2021/04/05 03:42:43;;;;;;;33.40;16.13;;;6.30;99.90;;;;;;5013663;28;20022;-58
2021/04/05 03:46:10;;;;;;;32.53;15.95;;;6.30;99.90;;;;;;5013323;28;20034;-54
2021/04/05 03:48:54;;;;;;;34.45;17.10;;;6.30;99.90;;;;;;4973355;28;20101;-56
2021/04/05 03:52:03;;;;;;;32.30;16.05;;;6.30;99.90;;;;;;5024852;28;20455;-56
2021/04/05 03:54:52;;;;;;;31.73;15.63;;;6.30;99.90;;;;;;5014213;28;20032;-53
2021/04/05 03:57:48;;;;;;;40.28;17.65;;;6.30;99.90;;;;;;5013708;28;20411;-56
2021/04/05 04:00:22;;;;;;;37.97;17.20;;;6.30;99.90;;;;;;5014732;28;20025;-53
2021/04/05 04:03:02;;;;;;;30.10;15.65;;;6.20;99.90;;;;;;5014572;28;20033;-56
2021/04/05 04:05:56;;;;;;;37.30;18.45;;;6.30;99.90;;;;;;5013433;28;20048;-52
2021/04/05 04:08:52;;;;;;;38.15;16.60;;;6.30;99.90;;;;;;5014220;28;20022;-58
2021/04/05 04:11:24;;;;;;;32.92;17.42;;;6.30;99.90;;;;;;5013423;28;20117;-53
2021/04/05 04:14:15;;;;;;;43.60;19.10;;;6.20;99.90;;;;;;5015014;28;20038;-57
2021/04/05 04:16:47;;;;;;;33.60;17.15;;;6.20;99.90;;;;;;5014472;28;20049;-59
2021/04/05 04:19:34;;;;;;;32.15;16.52;;;6.30;99.90;;;;;;5014436;28;20033;-55
2021/04/05 04:22:14;;;;;;;39.43;17.77;;;6.30;99.90;;;;;;5012834;28;20018;-57
2021/04/05 04:24:48;;;;;;;39.38;18.77;;;6.20;99.90;;;;;;5014564;28;20734;-58
2021/04/05 04:27:23;;;;;;;35.83;18.20;;;6.20;99.90;;;;;;5014858;28;20476;-56
2021/04/05 04:30:07;;;;;;;38.17;19.75;;;6.20;99.90;;;;;;5013069;28;20120;-57
2021/04/05 04:32:35;;;;;;;42.03;19.85;;;6.20;99.90;;;;;;5013981;28;20062;-57
2021/04/05 04:35:11;;;;;;;33.60;17.50;;;6.20;99.90;;;;;;5012333;28;20076;-56
2021/04/05 04:37:48;;;;;;;32.80;17.75;;;6.20;99.90;;;;;;5014268;28;20144;-56
2021/04/05 04:40:30;;;;;;;44.78;20.52;;;6.30;99.90;;;;;;5012643;28;20050;-55
2021/04/05 04:43:27;;;;;;;;;;;;;;;;;;;;;
2021/04/05 04:45:58;;;;;;;44.85;21.17;;;6.20;99.90;;;;;;5013823;28;20041;-52
2021/04/05 04:48:32;;;;;;;41.85;19.08;;;6.30;99.90;;;;;;5013966;28;20056;-55
2021/04/05 04:51:22;;;;;;;38.17;17.88;;;6.30;99.90;;;;;;5013065;28;20041;-51
2021/04/05 04:54:16;;;;;;;36.72;19.80;;;6.30;99.90;;;;;;5013498;28;20052;-57
2021/04/05 04:56:45;;;;;;;33.38;16.48;;;6.30;99.90;;;;;;5013745;28;20031;-54
2021/04/05 04:59:23;;;;;;;36.22;18.35;;;6.30;99.90;;;;;;5013542;28;20440;-53
2021/04/05 05:02:00;;;;;;;39.35;18.48;;;6.40;99.90;;;;;;5012110;28;20034;-54
2021/04/05 05:05:05;;;;;;;33.58;18.55;;;6.40;99.90;;;;;;5011751;28;20527;-55
2021/04/05 08:42:55;;;;;;;16.90;9.15;;;;;;;;;;4994789;28;20053;-52
2021/04/05 08:45:50;;;;;;;18.27;8.00;;;;;;;;;;4993823;28;20121;-50
2021/04/05 08:48:22;;;;;;;14.73;7.32;;;;;;;;;;4976581;28;20035;-51
2021/04/05 08:51:14;;;;;;;16.63;7.97;;;;;;;;;;4976528;28;20050;-49
2021/04/05 08:53:57;;;;;;;15.00;7.32;;;;;;;;;;4986505;28;20038;-52
2021/04/05 08:56:26;;;;;;;15.55;7.70;;;;;;;;;;5007823;28;20424;-50
2021/04/05 08:59:16;;;;;;;16.65;7.75;;;;;;;;;;4993525;28;20033;-51
2021/04/05 09:02:03;;;;;;;19.70;8.40;;;;;;;;;;4991901;28;20031;-45
2021/04/05 09:04:41;;;;;;;15.57;7.20;;;;;;;;;;5009461;28;20023;-50
2021/04/05 09:13:58;;;;;;;19.02;8.38;;;;;;;;;;4971094;28;20289;-50
2021/04/05 09:16:43;;;;;;;19.58;7.45;;;;;;;;;;4993459;28;20021;-50
2021/04/05 09:19:27;;;;;;;16.58;8.02;;;;;;;;;;4993567;28;20040;-51
2021/04/05 09:22:05;;;;;;;14.70;7.03;;;;;;;;;;4993565;28;20029;-52
2021/04/05 09:24:49;;;;;;;20.17;7.72;;;;;;;;;;4993218;28;20030;-52
2021/04/05 09:27:27;;;;;;;16.73;7.25;;;;;;;;;;4993678;28;20030;-49
2021/04/05 09:30:11;;;;;;;15.50;7.03;;;;;;;;;;4992738;28;20498;-51
2021/04/05 09:32:37;;;;;;;16.70;7.15;;;;;;;;;;5008411;28;20042;-53
2021/04/05 09:35:24;;;;;;;21.90;8.38;;;;;;;;;;5008541;28;20022;-56
2021/04/05 09:37:53;;;;;;;14.45;7.15;;;;;;;;;;4993559;28;20073;-58
2021/04/05 09:40:42;;;;;;;14.32;7.32;;;;;;;;;;4993217;28;20097;-53
2021/04/05 09:43:16;;;;;;;15.48;7.53;;;;;;;;;;4989064;28;20038;-55
2021/04/05 09:45:55;;;;;;;14.18;7.63;;;;;;;;;;5007706;28;20034;-59
2021/04/05 09:48:40;;;;;;;16.17;7.18;;;;;;;;;;4993210;28;20043;-53
2021/04/05 09:51:25;;;;;;;16.75;8.02;;;;;;;;;;4993268;28;20104;-55
2021/04/05 09:54:11;;;;;;;22.13;8.50;;;;;;;;;;4992898;28;20061;-51
2021/04/05 09:56:44;;;;;;;18.45;8.55;;;;;;;;;;4964171;28;20038;-52
2021/04/05 16:54:49;;;;;;;13.55;6.07;;;1.70;99.90;;;;;;4983289;28;20096;-64
2021/04/05 16:57:24;;;;;;;12.52;5.70;;;1.70;99.90;;;;;;4988526;28;20070;-64
2021/04/05 17:00:12;;;;;;;10.93;5.72;;;1.70;99.90;;;;;;4986685;28;20080;-64
2021/04/05 17:02:48;;;;;;;14.38;5.35;;;1.90;99.90;;;;;;4979160;28;20518;-64
2021/04/05 17:05:16;;;;;;;11.93;5.43;;;2.00;99.90;;;;;;4987105;28;20026;-64
2021/04/05 17:07:54;;;;;;;11.07;5.70;;;2.10;99.90;;;;;;4988916;28;20034;-65
2021/04/05 17:10:37;;;;;;;11.48;5.70;;;2.10;99.90;;;;;;4988078;28;20446;-65
2021/04/05 17:13:05;;;;;;;13.75;5.85;;;2.10;99.90;;;;;;4988900;28;20129;-65
2021/04/05 17:15:41;;;;;;;19.00;6.25;;;2.10;99.90;;;;;;4988337;28;20115;-64
2021/04/05 17:18:10;;;;;;;12.30;5.72;;;2.10;99.90;;;;;;4989037;28;20061;-63
2021/04/05 17:20:49;;;;;;;15.60;6.20;;;2.10;99.90;;;;;;4988886;28;20432;-64
2021/04/05 17:23:30;;;;;;;12.73;6.25;;;2.20;99.90;;;;;;4969941;28;20031;-64
2021/04/05 17:26:08;;;;;;;15.55;7.78;;;2.20;99.90;;;;;;4976086;28;20027;-64
2021/04/05 17:28:36;;;;;;;12.88;6.60;;;2.20;99.90;;;;;;4988919;28;20481;-64
2021/04/05 17:31:12;;;;;;;13.85;6.65;;;2.20;99.90;;;;;;4985380;28;20496;-63
2021/04/05 17:33:51;;;;;;;15.02;6.15;;;2.10;99.90;;;;;;4988930;28;20515;-64
2021/04/05 17:36:26;;;;;;;12.18;6.13;;;2.10;99.90;;;;;;4989008;28;20057;-62
2021/04/05 17:39:03;;;;;;;12.77;5.80;;;2.10;99.90;;;;;;4989200;28;20058;-64
2021/04/05 17:41:35;;;;;;;16.20;6.50;;;2.00;99.90;;;;;;4988661;28;20030;-65
2021/04/05 17:44:34;;;;;;;12.35;5.53;;;1.80;99.90;;;;;;4969160;28;20058;-64
2021/04/05 17:47:37;;;;;;;13.75;5.68;;;1.70;99.90;;;;;;4969346;28;20035;-64
2021/04/05 17:50:23;;;;;;;12.38;5.78;;;1.60;99.90;;;;;;4969300;28;20042;-65
2021/04/05 17:53:23;;;;;;;16.52;6.28;;;1.50;99.90;;;;;;4948119;28;20085;-65
2021/04/05 17:55:58;;;;;;;13.43;5.55;;;1.50;99.90;;;;;;4980098;28;20026;-64
2021/04/05 17:58:39;;;;;;;11.70;5.50;;;1.50;99.90;;;;;;4988048;28;20050;-65
2021/04/05 18:01:18;;;;;;;13.85;5.47;;;1.40;99.90;;;;;;4988521;28;20057;-63
2021/04/05 18:04:14;;;;;;;12.15;5.20;;;1.50;99.90;;;;;;4988292;28;20046;-65
2021/04/05 18:06:59;;;;;;;13.95;5.82;;;1.50;99.90;;;;;;4988413;28;20109;-63
2021/04/05 18:09:44;;;;;;;11.77;5.28;;;1.40;99.90;;;;;;4988275;28;20026;-62
2021/04/05 18:12:33;;;;;;;15.07;5.28;;;1.50;99.90;;;;;;4988103;28;20830;-63
2021/04/05 18:15:36;;;;;;;11.40;5.32;;;1.40;99.90;;;;;;4983471;28;20133;-64
2021/04/05 18:18:16;;;;;;;11.63;5.00;;;1.40;99.90;;;;;;4988586;28;20027;-65
2021/04/05 18:21:03;;;;;;;9.95;4.82;;;1.40;99.90;;;;;;4986456;28;20435;-64
2021/04/05 18:23:48;;;;;;;10.90;4.90;;;1.40;99.90;;;;;;4987137;28;20049;-65
2021/04/05 18:26:28;;;;;;;14.63;5.30;;;1.40;99.90;;;;;;4987905;28;20027;-64
2021/04/05 18:29:41;;;;;;;13.38;4.80;;;1.40;99.90;;;;;;4991726;28;20031;-64
2021/04/05 18:32:21;;;;;;;14.63;5.03;;;1.40;99.90;;;;;;4995353;28;20514;-63
2021/04/05 18:35:29;;;;;;;13.05;5.53;;;1.40;99.90;;;;;;4995000;28;20542;-64
2021/04/05 18:38:09;;;;;;;13.93;5.43;;;1.40;99.90;;;;;;4989801;28;20038;-64
2021/04/05 18:40:39;;;;;;;13.88;5.20;;;1.40;99.90;;;;;;4989059;28;20053;-64
2021/04/05 18:43:15;;;;;;;16.00;5.15;;;1.40;99.90;;;;;;4994393;28;20049;-64
2021/04/05 18:46:06;;;;;;;12.60;5.25;;;1.30;99.90;;;;;;4994082;28;20026;-63
2021/04/05 18:48:50;;;;;;;9.38;4.68;;;1.30;99.90;;;;;;4994539;28;20034;-63
2021/04/05 18:51:32;;;;;;;12.80;6.45;;;1.30;99.90;;;;;;4994096;28;20066;-63
2021/04/05 18:54:17;;;;;;;13.00;5.40;;;1.20;99.90;;;;;;4993744;28;20039;-63
2021/04/05 18:56:43;;;;;;;12.38;5.07;;;1.20;99.90;;;;;;4992418;28;20050;-65
2021/04/05 18:59:13;;;;;;;10.30;4.40;;;1.30;99.90;;;;;;4993751;28;20097;-62
2021/04/05 19:01:44;;;;;;;13.60;4.90;;;1.20;99.90;;;;;;4993869;28;20026;-64
2021/04/05 19:04:41;;;;;;;12.73;4.78;;;1.20;99.90;;;;;;4994023;28;20431;-62
2021/04/05 19:07:24;;;;;;;12.80;4.63;;;1.20;99.90;;;;;;4991011;28;20070;-61
2021/04/05 19:10:15;;;;;;;16.88;4.97;;;1.20;99.90;;;;;;4993928;28;20109;-59
2021/04/05 19:13:16;;;;;;;11.18;4.00;;;1.20;99.90;;;;;;4993486;28;20039;-62
2021/04/05 19:16:13;;;;;;;13.20;5.22;;;1.30;99.90;;;;;;4993599;28;20090;-59
2021/04/05 19:19:00;;;;;;;17.08;6.20;;;1.30;99.90;;;;;;4993173;28;20032;-58
2021/04/05 19:21:38;;;;;;;13.57;4.70;;;1.30;99.90;;;;;;4985304;28;20046;-64
2021/04/05 19:24:37;;;;;;;12.82;4.50;;;1.30;99.90;;;;;;4990779;28;20034;-63
2021/04/05 19:27:24;;;;;;;15.77;4.82;;;1.20;99.90;;;;;;4992244;28;20026;-61
2021/04/05 19:30:22;;;;;;;19.52;5.45;;;1.20;99.90;;;;;;4994004;28;20554;-63
2021/04/05 19:33:12;;;;;;;14.68;5.43;;;1.10;99.90;;;;;;4993576;28;20023;-61
2021/04/05 19:35:59;;;;;;;13.10;5.13;;;1.10;99.90;;;;;;4993586;28;20034;-61
2021/04/05 19:39:08;;;;;;;14.23;5.10;;;1.10;99.90;;;;;;4993184;28;20022;-62
2021/04/05 19:41:50;;;;;;;17.08;5.47;;;1.20;99.90;;;;;;4989360;28;20042;-62
2021/04/05 19:44:35;;;;;;;13.55;5.20;;;1.30;99.90;;;;;;4989301;28;20034;-62
2021/04/05 19:47:19;;;;;;;16.67;5.43;;;1.20;99.90;;;;;;4990458;28;20042;-59
2021/04/05 19:50:22;;;;;;;13.60;5.53;;;1.30;99.90;;;;;;4990698;28;20048;-63
2021/04/05 19:53:28;;;;;;;17.63;5.65;;;1.40;99.90;;;;;;4989004;28;20030;-62
2021/04/05 19:56:30;;;;;;;14.75;5.38;;;1.40;99.90;;;;;;4989877;28;20616;-65
2021/04/05 19:59:43;;;;;;;14.02;5.40;;;1.30;99.90;;;;;;4990079;28;20502;-64
2021/04/05 20:02:40;;;;;;;16.15;5.47;;;1.20;99.90;;;;;;4989337;28;20060;-64
2021/04/05 20:05:27;;;;;;;15.52;5.13;;;1.10;99.90;;;;;;4988571;28;20034;-62
2021/04/05 20:08:12;;;;;;;14.00;5.00;;;1.10;99.90;;;;;;4989420;28;20667;-63
2021/04/05 20:11:05;;;;;;;19.25;5.90;;;1.10;99.90;;;;;;4988417;28;20058;-63
2021/04/05 20:14:13;;;;;;;16.08;5.45;;;1.10;99.90;;;;;;4989131;28;20084;-64
2021/04/05 20:17:00;;;;;;;13.93;5.15;;;1.20;99.90;;;;;;4988889;28;20161;-64
2021/04/05 20:19:56;;;;;;;14.05;5.20;;;1.20;99.90;;;;;;4988045;28;20061;-64
2021/04/05 20:22:55;;;;;;;11.38;5.22;;;1.30;99.90;;;;;;4989825;28;20022;-64
2021/04/05 20:25:29;;;;;;;14.27;5.50;;;1.20;99.90;;;;;;4987698;28;20038;-63
2021/04/05 20:28:14;;;;;;;14.45;5.40;;;1.20;99.90;;;;;;4989795;28;20054;-64
2021/04/05 20:30:58;;;;;;;13.02;5.65;;;1.10;99.90;;;;;;4988513;28;20555;-63
2021/04/05 20:33:39;;;;;;;10.00;4.95;;;1.10;99.90;;;;;;4988928;28;20092;-61
2021/04/05 20:36:27;;;;;;;14.18;5.32;;;1.10;99.90;;;;;;4989302;28;20014;-64
2021/04/05 20:39:13;;;;;;;10.80;4.38;;;1.10;99.90;;;;;;4989210;28;20030;-62
2021/04/05 20:41:52;;;;;;;13.75;5.07;;;1.10;99.90;;;;;;4988964;28;20659;-62
2021/04/05 20:44:40;;;;;;;12.55;5.50;;;1.00;99.90;;;;;;4987905;28;20116;-63
2021/04/05 20:47:23;;;;;;;15.38;6.25;;;1.00;99.90;;;;;;4989124;28;20121;-63
2021/04/05 20:50:21;;;;;;;10.80;4.53;;;0.90;99.90;;;;;;4989184;28;20030;-64
2021/04/05 20:52:51;;;;;;;12.88;4.78;;;0.90;99.90;;;;;;4989100;28;20205;-63
2021/04/05 20:55:47;;;;;;;18.27;5.78;;;0.80;99.90;;;;;;4987476;28;20038;-63
2021/04/05 20:58:51;;;;;;;14.70;5.30;;;0.70;99.90;;;;;;4989216;28;20080;-62
2021/04/05 21:01:22;;;;;;;18.00;5.85;;;0.70;99.90;;;;;;4987913;28;20039;-64
2021/04/05 21:03:55;;;;;;;15.80;5.93;;;0.70;99.90;;;;;;5003105;28;20098;-63
2021/04/05 21:06:29;;;;;;;19.30;6.30;;;0.70;99.90;;;;;;4987720;28;20085;-62
2021/04/05 21:08:55;;;;;;;23.83;7.30;;;0.60;99.90;;;;;;4989453;28;20034;-63
2021/04/05 21:11:27;;;;;;;15.18;6.75;;;0.60;99.90;;;;;;4989224;28;20361;-63
2021/04/05 21:14:15;;;;;;;21.88;6.97;;;0.60;99.90;;;;;;4989187;28;20488;-63
2021/04/05 21:16:45;;;;;;;13.63;6.50;;;0.60;99.90;;;;;;4982620;28;20522;-63
2021/04/05 21:19:17;;;;;;;19.67;7.35;;;0.60;99.90;;;;;;4989518;28;20113;-64
2021/04/05 21:21:48;;;;;;;15.35;7.05;;;0.60;99.90;;;;;;4989936;28;20472;-63
2021/04/05 21:24:42;;;;;;;18.45;7.93;;;0.60;99.90;;;;;;4990323;28;20049;-64
2021/04/05 21:27:21;;;;;;;17.20;7.75;;;0.60;99.90;;;;;;4990352;28;20034;-63
2021/04/05 21:29:51;;;;;;;17.42;7.65;;;0.60;99.90;;;;;;5000309;23;20361;-63
2021/04/05 21:32:28;;;;;;;17.25;7.95;;;0.60;99.90;;;;;;4999615;28;20237;-65
2021/04/05 21:35:24;;;;;;;15.25;7.32;;;0.60;99.90;;;;;;5018002;28;20536;-64
2021/04/05 21:37:57;;;;;;;17.85;8.05;;;0.50;99.90;;;;;;5019250;28;20288;-63
2021/04/05 21:41:14;;;;;;;20.08;7.20;;;0.50;99.90;;;;;;4999159;28;20088;-63
2021/04/05 21:43:49;;;;;;;16.73;7.32;;;0.60;99.90;;;;;;4999875;28;20026;-63
2021/04/05 21:46:33;;;;;;;13.10;6.10;;;0.60;99.90;;;;;;4999008;28;20321;-63
2021/04/05 21:49:23;;;;;;;19.02;6.45;;;0.60;99.90;;;;;;4997772;28;20109;-62
2021/04/05 21:52:12;;;;;;;14.10;6.32;;;0.60;99.90;;;;;;4999282;28;20022;-63
2021/04/05 21:54:51;;;;;;;17.02;6.68;;;0.60;99.90;;;;;;4998389;28;20053;-62
2021/04/05 21:57:21;;;;;;;18.67;7.45;;;0.70;99.90;;;;;;4981707;28;20026;-63
2021/04/05 22:00:10;;;;;;;17.77;7.22;;;0.70;99.90;;;;;;4998958;28;20037;-63
2021/04/05 22:02:41;;;;;;;15.13;6.40;;;0.70;99.90;;;;;;4998301;28;20096;-63
2021/04/05 22:05:43;;;;;;;14.15;5.60;;;0.70;99.90;;;;;;4999205;28;20107;-63
2021/04/05 22:08:25;;;;;;;14.98;5.88;;;0.70;99.90;;;;;;4998942;28;20097;-63
2021/04/05 22:10:56;;;;;;;21.38;7.65;;;0.70;99.90;;;;;;4998958;28;20442;-67
2021/04/05 22:13:23;;;;;;;14.30;6.65;;;0.70;99.90;;;;;;4999366;28;20488;-60
2021/04/05 22:15:57;;;;;;;22.85;8.93;;;0.80;99.90;;;;;;4982286;28;20124;-67
2021/04/05 22:18:36;;;;;;;17.98;7.15;;;0.90;99.90;;;;;;4999845;28;20093;-64
2021/04/05 22:21:06;;;;;;;14.55;7.30;;;0.90;99.90;;;;;;5014557;28;20093;-64
2021/04/05 22:23:40;;;;;;;16.02;7.18;;;0.90;99.90;;;;;;4999320;28;20030;-65
2021/04/05 22:26:11;;;;;;;15.23;5.93;;;1.00;99.90;;;;;;4999141;28;20045;-66
2021/04/05 22:28:42;;;;;;;14.98;7.25;;;1.00;99.90;;;;;;4998955;28;20030;-65
2021/04/05 22:31:24;;;;;;;16.38;6.80;;;1.00;99.90;;;;;;4999432;28;20037;-65
2021/04/05 22:33:53;;;;;;;12.82;6.15;;;1.10;99.90;;;;;;4999273;28;20038;-65
2021/04/05 22:36:20;;;;;;;16.15;6.63;;;1.10;99.90;;;;;;4981898;28;20019;-65
2021/04/05 22:38:57;;;;;;;13.90;6.43;;;1.10;99.90;;;;;;4999211;28;20305;-66
2021/04/05 22:41:27;;;;;;;12.85;6.38;;;1.20;99.90;;;;;;4999171;28;20030;-65
2021/04/05 22:43:55;;;;;;;14.50;5.90;;;1.20;99.90;;;;;;4981596;28;20232;-66
2021/04/05 22:46:23;;;;;;;11.10;5.68;;;1.20;99.90;;;;;;4998589;28;20026;-64
2021/04/05 22:48:49;;;;;;;;;;;1.30;99.90;;;;;;5000608;28;20026;-64
2021/04/05 22:51:16;;;;;;;12.38;5.40;;;1.20;99.90;;;;;;5001217;28;20103;-65
2021/04/05 22:54:00;;;;;;;14.27;6.35;;;1.30;99.90;;;;;;5001120;28;20026;-63
2021/04/05 22:56:38;;;;;;;15.35;5.70;;;1.30;99.90;;;;;;5000273;28;20038;-63
2021/04/05 22:59:12;;;;;;;12.90;5.38;;;1.40;99.90;;;;;;5014984;28;20026;-63
2021/04/05 23:01:39;;;;;;;10.57;5.13;;;1.40;99.90;;;;;;5020866;28;20018;-61
2021/04/05 23:04:06;;;;;;;14.77;6.22;;;1.50;99.90;;;;;;5003283;28;20042;-62
2021/04/05 23:06:36;;;;;;;14.55;5.68;;;1.50;99.90;;;;;;5021154;28;20380;-62
2021/04/05 23:09:19;;;;;;;13.30;5.55;;;1.50;99.90;;;;;;5020910;28;20026;-60
2021/04/05 23:12:12;;;;;;;19.77;7.40;;;1.60;99.90;;;;;;5020966;28;20045;-61
2021/04/05 23:14:47;;;;;;;12.07;5.80;;;1.60;99.90;;;;;;5018827;28;20030;-63
2021/04/05 23:17:21;;;;;;;17.40;6.40;;;1.60;99.90;;;;;;5023480;28;20097;-61
2021/04/05 23:19:48;;;;;;;13.55;5.55;;;1.60;99.90;;;;;;5006992;28;20096;-61
2021/04/05 23:22:17;;;;;;;18.85;7.13;;;1.50;99.90;;;;;;5014663;28;20050;-62
2021/04/05 23:25:06;;;;;;;16.98;6.07;;;1.50;99.90;;;;;;5004569;28;20031;-62
2021/04/05 23:27:40;;;;;;;15.05;5.95;;;1.50;99.90;;;;;;4979629;28;20030;-61
2021/04/05 23:30:10;;;;;;;15.15;7.10;;;1.50;99.90;;;;;;5004562;28;20110;-62
2021/04/05 23:32:47;;;;;;;13.68;7.60;;;1.50;99.90;;;;;;5004634;28;20217;-62
2021/04/05 23:35:19;;;;;;;12.93;6.15;;;1.50;99.90;;;;;;5004541;28;20033;-62
2021/04/05 23:37:49;;;;;;;13.90;6.50;;;1.60;99.90;;;;;;5005085;28;20113;-61
2021/04/05 23:40:42;;;;;;;15.52;6.55;;;1.60;99.90;;;;;;4990648;28;20061;-63
2021/04/05 23:43:30;;;;;;;18.38;7.10;;;1.60;99.90;;;;;;4985030;28;20034;-61
2021/04/05 23:45:57;;;;;;;15.80;7.38;;;1.70;99.90;;;;;;4985452;28;20153;-63
2021/04/05 23:48:39;;;;;;;14.30;7.00;;;;;;;;;;4985088;28;20029;-63
2021/04/05 23:51:12;;;;;;;18.65;6.80;;;;;;;;;;4984844;28;20115;-60
2021/04/05 23:53:39;;;;;;;14.10;6.97;;;;;;;;;;4984255;28;20321;-62
2021/04/05 23:56:06;;;;;;;17.10;7.03;;;;;;;;;;4984498;28;20352;-63
2021/04/05 23:58:32;;;;;;;16.50;7.15;;;;;;;;;;4643360;28;9999933;-63
